sensor_id;sensor_type;location;lat;lon;timestamp;pressure;altitude;pressure_sealevel;temperature;humidity
51297;BME280;37380;45.186;9.792;2023-08-12T00:01:27;101649.25;;;23.47;100.00
51297;BME280;37380;45.186;9.792;2023-08-12T00:03:54;101656.38;;;23.42;100.00
51297;BME280;37380;45.186;9.792;2023-08-12T00:06:21;101646.56;;;23.41;100.00
51297;BME280;37380;45.186;9.792;2023-08-12T00:08:48;101655.47;;;23.36;100.00
51297;BME280;37380;45.186;9.792;2023-08-12T00:11:15;101647.53;;;23.22;100.00
51297;BME280;37380;45.186;9.792;2023-08-12T00:13:41;101648.47;;;23.10;100.00
51297;BME280;37380;45.186;9.792;2023-08-12T00:16:08;101644.88;;;23.14;100.00
51297;BME280;37380;45.186;9.792;2023-08-12T00:18:35;101634.22;;;23.07;100.00
51297;BME280;37380;45.186;9.792;2023-08-12T00:21:07;101637.81;;;22.95;100.00
51297;BME280;37380;45.186;9.792;2023-08-12T00:23:37;101644.91;;;22.88;100.00
51297;BME280;37380;45.186;9.792;2023-08-12T00:26:10;101635.13;;;22.86;100.00
51297;BME280;37380;45.186;9.792;2023-08-12T00:29:11;101633.34;;;22.91;100.00
51297;BME280;37380;45.186;9.792;2023-08-12T00:32:12;101644.91;;;22.88;100.00
51297;BME280;37380;45.186;9.792;2023-08-12T00:35:12;101639.59;;;22.90;100.00
51297;BME280;37380;45.186;9.792;2023-08-12T00:37:40;101644.91;;;23.05;100.00
51297;BME280;37380;45.186;9.792;2023-08-12T00:40:15;101636.91;;;23.00;100.00
51297;BME280;37380;45.186;9.792;2023-08-12T00:43:17;101644.03;;;22.97;100.00
51297;BME280;37380;45.186;9.792;2023-08-12T00:45:58;101642.25;;;22.99;100.00
51297;BME280;37380;45.186;9.792;2023-08-12T00:48:31;101644.91;;;22.93;100.00
51297;BME280;37380;45.186;9.792;2023-08-12T00:51:32;101644.91;;;22.80;100.00
51297;BME280;37380;45.186;9.792;2023-08-12T00:54:34;101639.56;;;22.80;100.00
51297;BME280;37380;45.186;9.792;2023-08-12T00:57:28;101641.34;;;22.88;100.00
51297;BME280;37380;45.186;9.792;2023-08-12T00:59:55;101642.25;;;22.79;100.00
51297;BME280;37380;45.186;9.792;2023-08-12T01:02:22;101644.91;;;22.87;100.00
51297;BME280;37380;45.186;9.792;2023-08-12T01:04:49;101644.00;;;22.88;100.00
51297;BME280;37380;45.186;9.792;2023-08-12T01:07:16;101641.34;;;22.86;100.00
51297;BME280;37380;45.186;9.792;2023-08-12T01:09:43;101644.91;;;22.80;100.00
51297;BME280;37380;45.186;9.792;2023-08-12T01:12:16;101638.69;;;22.80;100.00
51297;BME280;37380;45.186;9.792;2023-08-12T01:14:46;101635.13;;;22.76;100.00
51297;BME280;37380;45.186;9.792;2023-08-12T01:17:16;101636.91;;;22.74;100.00
51297;BME280;37380;45.186;9.792;2023-08-12T01:19:43;101631.59;;;22.79;100.00
51297;BME280;37380;45.186;9.792;2023-08-12T01:22:11;101632.47;;;22.76;100.00
51297;BME280;37380;45.186;9.792;2023-08-12T01:24:39;101634.25;;;22.71;100.00
51297;BME280;37380;45.186;9.792;2023-08-12T01:27:07;101636.03;;;22.60;100.00
51297;BME280;37380;45.186;9.792;2023-08-12T01:29:42;101637.81;;;22.70;100.00
51297;BME280;37380;45.186;9.792;2023-08-12T01:32:52;101640.47;;;22.70;100.00
51297;BME280;37380;45.186;9.792;2023-08-12T01:35:50;101635.16;;;22.73;100.00
51297;BME280;37380;45.186;9.792;2023-08-12T01:38:27;101630.72;;;22.68;100.00
51297;BME280;37380;45.186;9.792;2023-08-12T01:41:28;101625.38;;;22.65;100.00
51297;BME280;37380;45.186;9.792;2023-08-12T01:44:22;101626.28;;;22.57;100.00
51297;BME280;37380;45.186;9.792;2023-08-12T01:46:56;101620.06;;;22.37;100.00
51297;BME280;37380;45.186;9.792;2023-08-12T01:49:57;101618.28;;;22.44;100.00
51297;BME280;37380;45.186;9.792;2023-08-12T01:52:58;101625.38;;;22.23;100.00
51297;BME280;37380;45.186;9.792;2023-08-12T01:55:59;101620.06;;;22.43;100.00
51297;BME280;37380;45.186;9.792;2023-08-12T01:58:53;101614.72;;;22.45;100.00
51297;BME280;37380;45.186;9.792;2023-08-12T02:01:20;101619.19;;;22.58;100.00
51297;BME280;37380;45.186;9.792;2023-08-12T02:03:47;101614.72;;;22.42;100.00
51297;BME280;37380;45.186;9.792;2023-08-12T02:06:14;101601.41;;;22.35;100.00
51297;BME280;37380;45.186;9.792;2023-08-12T02:08:41;101612.97;;;22.31;100.00
51297;BME280;37380;45.186;9.792;2023-08-12T02:11:08;101603.19;;;22.30;100.00
51297;BME280;37380;45.186;9.792;2023-08-12T02:13:35;101606.72;;;22.28;100.00
51297;BME280;37380;45.186;9.792;2023-08-12T02:16:02;101597.88;;;22.29;100.00
51297;BME280;37380;45.186;9.792;2023-08-12T02:18:29;101596.91;;;22.13;100.00
51297;BME280;37380;45.186;9.792;2023-08-12T02:20:56;101592.53;;;22.21;100.00
51297;BME280;37380;45.186;9.792;2023-08-12T02:23:23;101597.84;;;22.24;100.00
51297;BME280;37380;45.186;9.792;2023-08-12T02:25:57;101600.50;;;22.21;100.00
51297;BME280;37380;45.186;9.792;2023-08-12T02:29:00;101604.97;;;22.21;100.00
51297;BME280;37380;45.186;9.792;2023-08-12T02:32:01;101612.06;;;22.23;100.00
51297;BME280;37380;45.186;9.792;2023-08-12T02:35:03;101611.16;;;22.24;100.00
51297;BME280;37380;45.186;9.792;2023-08-12T02:37:58;101612.06;;;22.29;100.00
51297;BME280;37380;45.186;9.792;2023-08-12T02:40:31;101618.25;;;22.19;100.00
51297;BME280;37380;45.186;9.792;2023-08-12T02:43:26;101616.50;;;22.23;100.00
51297;BME280;37380;45.186;9.792;2023-08-12T02:45:53;101612.97;;;22.25;100.00
51297;BME280;37380;45.186;9.792;2023-08-12T02:48:26;101622.72;;;22.29;100.00
51297;BME280;37380;45.186;9.792;2023-08-12T02:51:27;101615.59;;;22.33;100.00
51297;BME280;37380;45.186;9.792;2023-08-12T02:54:28;101611.16;;;22.43;100.00
51297;BME280;37380;45.186;9.792;2023-08-12T02:57:23;101616.50;;;22.41;100.00
51297;BME280;37380;45.186;9.792;2023-08-12T02:59:50;101606.72;;;22.31;100.00
51297;BME280;37380;45.186;9.792;2023-08-12T03:02:16;101604.97;;;22.25;100.00
51297;BME280;37380;45.186;9.792;2023-08-12T03:04:44;101606.75;;;22.26;100.00
51297;BME280;37380;45.186;9.792;2023-08-12T03:07:10;101601.38;;;22.11;100.00
51297;BME280;37380;45.186;9.792;2023-08-12T03:09:38;101598.75;;;22.26;100.00
51297;BME280;37380;45.186;9.792;2023-08-12T03:12:06;101595.22;;;22.20;100.00
51297;BME280;37380;45.186;9.792;2023-08-12T03:14:33;101596.03;;;22.12;100.00
51297;BME280;37380;45.186;9.792;2023-08-12T03:17:01;101597.84;;;22.24;100.00
51297;BME280;37380;45.186;9.792;2023-08-12T03:19:29;101598.75;;;22.17;100.00
51297;BME280;37380;45.186;9.792;2023-08-12T03:21:57;101596.91;;;22.13;100.00
51297;BME280;37380;45.186;9.792;2023-08-12T03:24:24;101593.34;;;21.97;100.00
51297;BME280;37380;45.186;9.792;2023-08-12T03:26:51;101595.13;;;21.93;100.00
51297;BME280;37380;45.186;9.792;2023-08-12T03:29:18;101596.91;;;21.98;100.00
51297;BME280;37380;45.186;9.792;2023-08-12T03:32:00;101589.81;;;22.00;100.00
51297;BME280;37380;45.186;9.792;2023-08-12T03:34:49;101588.03;;;22.05;100.00
51297;BME280;37380;45.186;9.792;2023-08-12T03:37:16;101588.06;;;22.15;100.00
51297;BME280;37380;45.186;9.792;2023-08-12T03:39:49;101592.53;;;22.18;100.00
51297;BME280;37380;45.186;9.792;2023-08-12T03:42:51;101589.00;;;22.21;100.00
51297;BME280;37380;45.186;9.792;2023-08-12T03:45:40;101592.56;;;22.20;100.00
51297;BME280;37380;45.186;9.792;2023-08-12T03:48:15;101588.94;;;22.10;100.00
51297;BME280;37380;45.186;9.792;2023-08-12T03:51:16;101597.78;;;22.10;100.00
51297;BME280;37380;45.186;9.792;2023-08-12T03:54:18;101590.69;;;21.91;100.00
51297;BME280;37380;45.186;9.792;2023-08-12T03:57:05;101593.34;;;21.96;100.00
51297;BME280;37380;45.186;9.792;2023-08-12T03:59:33;101597.78;;;21.98;100.00
51297;BME280;37380;45.186;9.792;2023-08-12T04:02:00;101592.47;;;22.01;100.00
51297;BME280;37380;45.186;9.792;2023-08-12T04:04:27;101595.16;;;22.15;100.00
51297;BME280;37380;45.186;9.792;2023-08-12T04:06:54;101591.56;;;21.79;100.00
51297;BME280;37380;45.186;9.792;2023-08-12T04:09:21;101591.53;;;21.84;100.00
51297;BME280;37380;45.186;9.792;2023-08-12T04:11:48;101582.72;;;22.03;100.00
51297;BME280;37380;45.186;9.792;2023-08-12T04:14:15;101583.63;;;22.14;100.00
51297;BME280;37380;45.186;9.792;2023-08-12T04:16:42;101589.81;;;21.97;100.00
51297;BME280;37380;45.186;9.792;2023-08-12T04:19:09;101588.00;;;21.86;100.00
51297;BME280;37380;45.186;9.792;2023-08-12T04:21:36;101588.00;;;21.80;100.00
51297;BME280;37380;45.186;9.792;2023-08-12T04:24:03;101596.88;;;21.79;100.00
51297;BME280;37380;45.186;9.792;2023-08-12T04:26:31;101586.25;;;21.82;100.00
51297;BME280;37380;45.186;9.792;2023-08-12T04:28:59;101597.81;;;21.97;100.00
51297;BME280;37380;45.186;9.792;2023-08-12T04:31:33;101600.47;;;22.09;100.00
51297;BME280;37380;45.186;9.792;2023-08-12T04:34:34;101604.91;;;22.08;100.00
51297;BME280;37380;45.186;9.792;2023-08-12T04:37:02;101598.69;;;22.06;100.00
51297;BME280;37380;45.186;9.792;2023-08-12T04:39:36;101605.78;;;22.03;100.00
51297;BME280;37380;45.186;9.792;2023-08-12T04:42:37;101612.00;;;22.15;100.00
51297;BME280;37380;45.186;9.792;2023-08-12T04:45:32;101614.69;;;22.08;100.00
51297;BME280;37380;45.186;9.792;2023-08-12T04:48:05;101619.16;;;22.76;100.00
51297;BME280;37380;45.186;9.792;2023-08-12T04:51:06;101614.53;;;23.55;100.00
51297;BME280;37380;45.186;9.792;2023-08-12T04:54:07;101626.66;;;24.21;100.00
51297;BME280;37380;45.186;9.792;2023-08-12T04:57:02;101621.75;;;24.78;96.31
51297;BME280;37380;45.186;9.792;2023-08-12T04:59:29;101632.84;;;25.29;94.52
51297;BME280;37380;45.186;9.792;2023-08-12T05:01:56;101618.06;;;25.70;90.40
51297;BME280;37380;45.186;9.792;2023-08-12T05:04:32;101626.78;;;25.07;97.38
51297;BME280;37380;45.186;9.792;2023-08-12T05:06:59;101628.22;;;24.49;100.00
51297;BME280;37380;45.186;9.792;2023-08-12T05:09:26;101625.94;;;25.03;98.93
51297;BME280;37380;45.186;9.792;2023-08-12T05:11:53;101623.53;;;25.61;95.37
51297;BME280;37380;45.186;9.792;2023-08-12T05:14:20;101620.41;;;25.96;89.88
51297;BME280;37380;45.186;9.792;2023-08-12T05:16:47;101624.94;;;26.50;90.76
51297;BME280;37380;45.186;9.792;2023-08-12T05:19:14;101629.91;;;26.17;87.36
51297;BME280;37380;45.186;9.792;2023-08-12T05:21:41;101634.59;;;25.30;98.35
51297;BME280;37380;45.186;9.792;2023-08-12T05:24:08;101623.53;;;25.61;94.47
51297;BME280;37380;45.186;9.792;2023-08-12T05:26:35;101626.84;;;26.41;89.11
51297;BME280;37380;45.186;9.792;2023-08-12T05:29:02;101625.34;;;26.78;81.51
51297;BME280;37380;45.186;9.792;2023-08-12T05:31:35;101620.69;;;27.36;81.95
51297;BME280;37380;45.186;9.792;2023-08-12T05:34:36;101619.22;;;27.64;73.92
51297;BME280;37380;45.186;9.792;2023-08-12T05:37:37;101612.19;;;27.12;77.81
51297;BME280;37380;45.186;9.792;2023-08-12T05:40:38;101612.34;;;28.66;67.51
51297;BME280;37380;45.186;9.792;2023-08-12T05:43:39;101627.19;;;29.15;66.65
51297;BME280;37380;45.186;9.792;2023-08-12T05:46:40;101630.72;;;30.08;59.17
51297;BME280;37380;45.186;9.792;2023-08-12T05:49:41;101631.69;;;29.77;65.01
51297;BME280;37380;45.186;9.792;2023-08-12T05:52:43;101629.34;;;29.94;66.32
51297;BME280;37380;45.186;9.792;2023-08-12T05:55:43;101631.25;;;31.00;59.01
51297;BME280;37380;45.186;9.792;2023-08-12T05:58:38;101628.91;;;30.36;65.06
51297;BME280;37380;45.186;9.792;2023-08-12T06:01:04;101633.44;;;31.14;57.09
51297;BME280;37380;45.186;9.792;2023-08-12T06:03:31;101627.16;;;30.62;59.74
51297;BME280;37380;45.186;9.792;2023-08-12T06:06:04;101627.22;;;31.61;53.83
51297;BME280;37380;45.186;9.792;2023-08-12T06:09:05;101630.59;;;30.94;54.31
51297;BME280;37380;45.186;9.792;2023-08-12T06:12:06;101630.34;;;32.19;49.97
51297;BME280;37380;45.186;9.792;2023-08-12T06:15:01;101619.16;;;32.06;49.04
51297;BME280;37380;45.186;9.792;2023-08-12T06:17:29;101615.47;;;32.94;44.89
51297;BME280;37380;45.186;9.792;2023-08-12T06:19:55;101621.09;;;31.32;48.88
51297;BME280;37380;45.186;9.792;2023-08-12T06:22:22;101619.03;;;30.09;54.36
51297;BME280;37380;45.186;9.792;2023-08-12T06:24:55;101617.22;;;30.37;54.05
51297;BME280;37380;45.186;9.792;2023-08-12T06:27:56;101623.06;;;30.77;56.39
51297;BME280;37380;45.186;9.792;2023-08-12T06:31:01;101630.66;;;32.33;49.18
51297;BME280;37380;45.186;9.792;2023-08-12T06:34:02;101628.72;;;32.79;46.82
51297;BME280;37380;45.186;9.792;2023-08-12T06:37:03;101629.56;;;33.62;45.31
51297;BME280;37380;45.186;9.792;2023-08-12T06:40:05;101636.28;;;34.82;41.98
51297;BME280;37380;45.186;9.792;2023-08-12T06:43:05;101643.94;;;34.91;41.72
51297;BME280;37380;45.186;9.792;2023-08-12T06:45:58;101645.69;;;34.92;40.74
51297;BME280;37380;45.186;9.792;2023-08-12T06:48:25;101641.53;;;34.68;41.91
51297;BME280;37380;45.186;9.792;2023-08-12T06:50:53;101645.03;;;34.70;41.74
51297;BME280;37380;45.186;9.792;2023-08-12T06:53:20;101648.09;;;33.52;46.99
51297;BME280;37380;45.186;9.792;2023-08-12T06:55:53;101635.94;;;33.98;46.14
51297;BME280;37380;45.186;9.792;2023-08-12T06:58:54;101641.50;;;33.95;44.23
51297;BME280;37380;45.186;9.792;2023-08-12T07:01:55;101643.84;;;33.65;46.55
51297;BME280;37380;45.186;9.792;2023-08-12T07:04:50;101640.84;;;34.45;43.78
51297;BME280;37380;45.186;9.792;2023-08-12T07:07:16;101646.28;;;34.45;44.42
51297;BME280;37380;45.186;9.792;2023-08-12T07:09:43;101639.88;;;34.46;45.07
51297;BME280;37380;45.186;9.792;2023-08-12T07:12:10;101632.09;;;34.75;45.23
51297;BME280;37380;45.186;9.792;2023-08-12T07:14:37;101633.59;;;34.10;42.62
51297;BME280;37380;45.186;9.792;2023-08-12T07:17:04;101632.56;;;33.93;43.05
51297;BME280;37380;45.186;9.792;2023-08-12T07:19:31;101632.25;;;33.99;44.71
51297;BME280;37380;45.186;9.792;2023-08-12T07:21:58;101638.28;;;32.88;46.30
51297;BME280;37380;45.186;9.792;2023-08-12T07:24:25;101631.19;;;31.02;54.91
51297;BME280;37380;45.186;9.792;2023-08-12T07:26:52;101635.28;;;32.74;49.70
51297;BME280;37380;45.186;9.792;2023-08-12T07:29:19;101630.81;;;33.54;45.86
51297;BME280;37380;45.186;9.792;2023-08-12T07:32:05;101630.59;;;34.16;44.87
51297;BME280;37380;45.186;9.792;2023-08-12T07:35:00;101631.47;;;34.70;42.28
51297;BME280;37380;45.186;9.792;2023-08-12T07:37:28;101633.84;;;34.76;42.75
51297;BME280;37380;45.186;9.792;2023-08-12T07:40:01;101631.28;;;34.56;42.91
51297;BME280;37380;45.186;9.792;2023-08-12T07:42:56;101635.84;;;33.23;48.46
51297;BME280;37380;45.186;9.792;2023-08-12T07:45:22;101628.19;;;34.10;43.80
51297;BME280;37380;45.186;9.792;2023-08-12T07:47:56;101625.78;;;34.21;45.27
51297;BME280;37380;45.186;9.792;2023-08-12T07:50:58;101629.94;;;34.11;44.27
51297;BME280;37380;45.186;9.792;2023-08-12T07:53:46;101633.47;;;33.15;45.45
51297;BME280;37380;45.186;9.792;2023-08-12T07:56:13;101628.06;;;32.08;48.33
51297;BME280;37380;45.186;9.792;2023-08-12T07:58:46;101623.75;;;31.80;50.28
51297;BME280;37380;45.186;9.792;2023-08-12T08:01:48;101625.13;;;31.69;55.22
51297;BME280;37380;45.186;9.792;2023-08-12T08:04:43;101617.63;;;32.65;49.14
51297;BME280;37380;45.186;9.792;2023-08-12T08:07:10;101614.19;;;33.23;47.27
51297;BME280;37380;45.186;9.792;2023-08-12T08:09:43;101618.75;;;33.41;46.61
51297;BME280;37380;45.186;9.792;2023-08-12T08:12:44;101611.53;;;33.61;46.64
51297;BME280;37380;45.186;9.792;2023-08-12T08:15:34;101615.00;;;34.00;44.29
51297;BME280;37380;45.186;9.792;2023-08-12T08:18:00;101614.69;;;34.44;42.38
51297;BME280;37380;45.186;9.792;2023-08-12T08:20:30;101621.66;;;32.96;46.76
51297;BME280;37380;45.186;9.792;2023-08-12T08:22:57;101624.63;;;31.81;53.17
51297;BME280;37380;45.186;9.792;2023-08-12T08:25:24;101624.75;;;31.06;55.19
51297;BME280;37380;45.186;9.792;2023-08-12T08:27:51;101617.53;;;31.30;57.31
51297;BME280;37380;45.186;9.792;2023-08-12T08:30:24;101614.41;;;31.19;55.06
51297;BME280;37380;45.186;9.792;2023-08-12T08:33:25;101620.16;;;32.25;49.25
51297;BME280;37380;45.186;9.792;2023-08-12T08:36:24;101609.66;;;31.00;52.22
51297;BME280;37380;45.186;9.792;2023-08-12T08:38:51;101614.81;;;31.31;52.94
51297;BME280;37380;45.186;9.792;2023-08-12T08:41:18;101610.22;;;30.85;52.87
51297;BME280;37380;45.186;9.792;2023-08-12T08:43:46;101608.78;;;30.73;53.79
51297;BME280;37380;45.186;9.792;2023-08-12T08:46:14;101606.81;;;31.28;56.55
51297;BME280;37380;45.186;9.792;2023-08-12T08:48:42;101605.94;;;31.98;49.23
51297;BME280;37380;45.186;9.792;2023-08-12T08:51:10;101611.38;;;32.63;47.54
51297;BME280;37380;45.186;9.792;2023-08-12T08:53:38;101552.34;;;31.64;48.94
51297;BME280;37380;45.186;9.792;2023-08-12T08:56:08;101604.91;;;32.87;46.59
51297;BME280;37380;45.186;9.792;2023-08-12T08:58:47;101599.00;;;33.19;45.60
51297;BME280;37380;45.186;9.792;2023-08-12T09:01:49;101590.94;;;31.91;51.05
51297;BME280;37380;45.186;9.792;2023-08-12T09:04:49;101593.88;;;32.72;46.80
51297;BME280;37380;45.186;9.792;2023-08-12T09:07:44;101585.66;;;33.34;45.32
51297;BME280;37380;45.186;9.792;2023-08-12T09:10:38;101602.44;;;32.81;44.44
51297;BME280;37380;45.186;9.792;2023-08-12T09:13:39;101595.38;;;33.20;42.15
51297;BME280;37380;45.186;9.792;2023-08-12T09:16:34;101593.38;;;31.97;49.85
51297;BME280;37380;45.186;9.792;2023-08-12T09:19:01;101601.66;;;32.79;44.99
51297;BME280;37380;45.186;9.792;2023-08-12T09:21:28;101597.59;;;32.27;46.39
51297;BME280;37380;45.186;9.792;2023-08-12T09:23:54;101591.50;;;33.25;45.63
51297;BME280;37380;45.186;9.792;2023-08-12T09:26:21;101585.53;;;33.75;42.50
51297;BME280;37380;45.186;9.792;2023-08-12T09:28:48;101588.22;;;33.94;45.60
51297;BME280;37380;45.186;9.792;2023-08-12T09:34:24;101593.09;;;34.07;41.11
51297;BME280;37380;45.186;9.792;2023-08-12T09:36:59;101587.25;;;32.79;43.58
51297;BME280;37380;45.186;9.792;2023-08-12T09:39:25;101589.69;;;32.00;45.55
51297;BME280;37380;45.186;9.792;2023-08-12T09:41:53;101589.53;;;32.47;45.90
51297;BME280;37380;45.186;9.792;2023-08-12T09:44:20;101583.94;;;33.51;43.55
51297;BME280;37380;45.186;9.792;2023-08-12T09:46:47;101584.50;;;33.59;41.78
51297;BME280;37380;45.186;9.792;2023-08-12T09:49:14;101584.06;;;33.87;41.80
51297;BME280;37380;45.186;9.792;2023-08-12T09:51:41;101579.25;;;33.75;42.47
51297;BME280;37380;45.186;9.792;2023-08-12T09:54:09;101585.00;;;34.41;41.94
51297;BME280;37380;45.186;9.792;2023-08-12T09:56:37;101580.47;;;34.06;41.04
51297;BME280;37380;45.186;9.792;2023-08-12T09:59:13;101579.25;;;34.82;39.15
51297;BME280;37380;45.186;9.792;2023-08-12T10:02:17;101573.59;;;34.69;38.23
51297;BME280;37380;45.186;9.792;2023-08-12T10:05:13;101574.19;;;33.28;39.68
51297;BME280;37380;45.186;9.792;2023-08-12T10:07:49;101561.75;;;33.99;40.70
51297;BME280;37380;45.186;9.792;2023-08-12T10:10:50;101561.31;;;34.09;42.04
51297;BME280;37380;45.186;9.792;2023-08-12T10:13:52;101563.50;;;33.06;43.88
51297;BME280;37380;45.186;9.792;2023-08-12T10:16:19;101553.44;;;33.47;42.78
51297;BME280;37380;45.186;9.792;2023-08-12T10:18:46;101543.19;;;33.35;46.33
51297;BME280;37380;45.186;9.792;2023-08-12T10:21:14;101545.44;;;33.44;43.49
51297;BME280;37380;45.186;9.792;2023-08-12T10:23:44;101548.56;;;33.16;43.09
51297;BME280;37380;45.186;9.792;2023-08-12T10:26:13;101542.03;;;34.15;42.31
51297;BME280;37380;45.186;9.792;2023-08-12T10:28:41;101547.13;;;34.38;40.90
51297;BME280;37380;45.186;9.792;2023-08-12T10:31:15;101538.81;;;34.93;41.04
51297;BME280;37380;45.186;9.792;2023-08-12T10:34:22;101537.34;;;34.70;41.55
51297;BME280;37380;45.186;9.792;2023-08-12T10:37:02;101537.91;;;34.77;38.93
51297;BME280;37380;45.186;9.792;2023-08-12T10:39:33;101519.63;;;35.30;37.52
51297;BME280;37380;45.186;9.792;2023-08-12T10:42:00;101527.47;;;32.22;44.40
51297;BME280;37380;45.186;9.792;2023-08-12T10:44:38;101513.44;;;33.71;42.91
51297;BME280;37380;45.186;9.792;2023-08-12T10:47:07;101521.81;;;33.29;46.61
51297;BME280;37380;45.186;9.792;2023-08-12T10:49:37;101524.88;;;33.78;44.17
51297;BME280;37380;45.186;9.792;2023-08-12T10:52:04;101512.19;;;34.15;42.56
51297;BME280;37380;45.186;9.792;2023-08-12T10:54:31;101509.56;;;34.48;40.60
51297;BME280;37380;45.186;9.792;2023-08-12T10:59:48;101506.66;;;34.86;39.85
51297;BME280;37380;45.186;9.792;2023-08-12T11:02:49;101498.28;;;33.67;41.12
51297;BME280;37380;45.186;9.792;2023-08-12T11:05:44;101503.34;;;32.17;44.94
51297;BME280;37380;45.186;9.792;2023-08-12T11:08:11;101495.78;;;32.46;44.36
51297;BME280;37380;45.186;9.792;2023-08-12T11:10:39;101490.94;;;32.94;43.75
51297;BME280;37380;45.186;9.792;2023-08-12T11:13:08;101481.56;;;32.82;44.50
51297;BME280;37380;45.186;9.792;2023-08-12T11:15:35;101500.72;;;31.94;47.47
51297;BME280;37380;45.186;9.792;2023-08-12T11:18:09;101484.78;;;32.51;47.07
51297;BME280;37380;45.186;9.792;2023-08-12T11:20:37;101482.97;;;31.87;49.99
51297;BME280;37380;45.186;9.792;2023-08-12T11:23:11;101474.88;;;31.65;50.49
51297;BME280;37380;45.186;9.792;2023-08-12T11:26:14;101477.84;;;32.84;46.98
51297;BME280;37380;45.186;9.792;2023-08-12T11:29:15;101473.19;;;32.06;48.45
51297;BME280;37380;45.186;9.792;2023-08-12T11:32:16;101473.94;;;30.97;51.04
51297;BME280;37380;45.186;9.792;2023-08-12T11:35:17;101460.75;;;31.58;50.25
51297;BME280;37380;45.186;9.792;2023-08-12T11:38:12;101464.09;;;31.85;50.37
51297;BME280;37380;45.186;9.792;2023-08-12T11:40:42;101460.31;;;31.91;49.62
51297;BME280;37380;45.186;9.792;2023-08-12T11:43:09;101455.56;;;32.59;47.85
51297;BME280;37380;45.186;9.792;2023-08-12T11:45:36;101455.91;;;32.51;49.47
51297;BME280;37380;45.186;9.792;2023-08-12T11:48:05;101456.47;;;31.96;53.56
51297;BME280;37380;45.186;9.792;2023-08-12T11:50:32;101447.09;;;31.83;51.85
51297;BME280;37380;45.186;9.792;2023-08-12T11:53:00;101438.38;;;31.54;52.01
51297;BME280;37380;45.186;9.792;2023-08-12T11:55:27;101436.91;;;31.68;52.40
51297;BME280;37380;45.186;9.792;2023-08-12T11:57:54;101439.50;;;31.93;52.37
51297;BME280;37380;45.186;9.792;2023-08-12T12:00:21;101431.22;;;31.97;50.88
51297;BME280;37380;45.186;9.792;2023-08-12T12:02:51;101433.41;;;32.08;52.20
51297;BME280;37380;45.186;9.792;2023-08-12T12:05:22;101429.94;;;32.27;52.21
51297;BME280;37380;45.186;9.792;2023-08-12T12:07:58;101427.66;;;31.07;56.28
51297;BME280;37380;45.186;9.792;2023-08-12T12:11:05;101426.66;;;31.76;56.59
51297;BME280;37380;45.186;9.792;2023-08-12T12:14:00;101425.56;;;31.60;54.56
51297;BME280;37380;45.186;9.792;2023-08-12T12:16:36;101421.53;;;31.92;53.54
51297;BME280;37380;45.186;9.792;2023-08-12T12:19:03;101425.53;;;32.04;52.08
51297;BME280;37380;45.186;9.792;2023-08-12T12:21:39;101411.22;;;31.79;52.77
51297;BME280;37380;45.186;9.792;2023-08-12T12:24:07;101409.19;;;30.72;57.13
51297;BME280;37380;45.186;9.792;2023-08-12T12:26:34;101406.94;;;31.08;55.99
51297;BME280;37380;45.186;9.792;2023-08-12T12:29:02;101413.41;;;30.80;56.78
51297;BME280;37380;45.186;9.792;2023-08-12T12:31:36;101413.25;;;31.74;58.51
51297;BME280;37380;45.186;9.792;2023-08-12T12:34:31;101405.53;;;31.65;53.35
51297;BME280;37380;45.186;9.792;2023-08-12T12:36:58;101409.97;;;31.66;54.15
51297;BME280;37380;45.186;9.792;2023-08-12T12:39:25;101399.22;;;32.07;52.71
51297;BME280;37380;45.186;9.792;2023-08-12T12:41:53;101398.00;;;31.94;52.86
51297;BME280;37380;45.186;9.792;2023-08-12T12:44:20;101403.34;;;31.73;53.29
51297;BME280;37380;45.186;9.792;2023-08-12T12:46:47;101390.44;;;32.22;53.27
51297;BME280;37380;45.186;9.792;2023-08-12T12:49:14;101399.16;;;31.22;55.03
51297;BME280;37380;45.186;9.792;2023-08-12T12:51:41;101389.50;;;31.61;53.21
51297;BME280;37380;45.186;9.792;2023-08-12T12:54:14;101393.91;;;31.41;54.58
51297;BME280;37380;45.186;9.792;2023-08-12T12:57:15;101389.16;;;31.48;54.91
51297;BME280;37380;45.186;9.792;2023-08-12T13:00:16;101388.56;;;32.04;53.13
51297;BME280;37380;45.186;9.792;2023-08-12T13:03:17;101382.38;;;32.41;51.31
51297;BME280;37380;45.186;9.792;2023-08-12T13:06:11;101374.78;;;32.10;51.60
51297;BME280;37380;45.186;9.792;2023-08-12T13:08:38;101379.44;;;31.20;52.55
51297;BME280;37380;45.186;9.792;2023-08-12T13:11:05;101374.72;;;31.03;53.77
51297;BME280;37380;45.186;9.792;2023-08-12T13:13:32;101366.69;;;31.88;52.23
51297;BME280;37380;45.186;9.792;2023-08-12T13:15:59;101361.66;;;32.01;52.48
51297;BME280;37380;45.186;9.792;2023-08-12T13:18:26;101359.38;;;31.70;52.75
51297;BME280;37380;45.186;9.792;2023-08-12T13:20:59;101365.19;;;32.03;50.58
51297;BME280;37380;45.186;9.792;2023-08-12T13:23:57;101359.25;;;31.95;51.25
51297;BME280;37380;45.186;9.792;2023-08-12T13:26:23;101357.78;;;32.27;52.92
51297;BME280;37380;45.186;9.792;2023-08-12T13:28:50;101349.88;;;32.22;51.33
51297;BME280;37380;45.186;9.792;2023-08-12T13:31:24;101345.69;;;32.15;51.95
51297;BME280;37380;45.186;9.792;2023-08-12T13:34:25;101346.97;;;32.47;49.54
51297;BME280;37380;45.186;9.792;2023-08-12T13:36:59;101336.28;;;32.24;50.06
51297;BME280;37380;45.186;9.792;2023-08-12T13:39:33;101331.47;;;32.70;49.16
51297;BME280;37380;45.186;9.792;2023-08-12T13:42:34;101336.25;;;32.05;49.94
51297;BME280;37380;45.186;9.792;2023-08-12T13:45:28;101321.13;;;32.01;50.34
51297;BME280;37380;45.186;9.792;2023-08-12T13:48:02;101327.59;;;31.97;51.66